createdAt,value
2022-12-13T00:01:53.263Z,26.05
2022-12-13T00:04:21.907Z,19.50
2022-12-13T00:06:49.510Z,19.08
2022-12-13T00:09:18.505Z,19.38
2022-12-13T00:11:45.775Z,24.73
2022-12-13T00:14:14.284Z,21.77
2022-12-13T00:16:45.680Z,23.20
2022-12-13T00:19:12.762Z,27.45
2022-12-13T00:21:39.485Z,31.75
2022-12-13T00:24:07.942Z,37.03
2022-12-13T00:26:34.936Z,38.80
2022-12-13T00:29:03.978Z,42.72
2022-12-13T00:34:21.219Z,51.90
2022-12-13T00:36:48.730Z,60.88
2022-12-13T00:39:16.793Z,59.67
2022-12-13T00:41:44.919Z,72.47
2022-12-13T00:44:12.942Z,68.65
2022-12-13T00:46:41.221Z,63.55
2022-12-13T00:49:09.760Z,63.65
2022-12-13T00:51:36.591Z,69.93
2022-12-13T00:54:03.845Z,63.78
2022-12-13T00:56:32.804Z,69.85
2022-12-13T00:58:59.725Z,94.13
2022-12-13T01:01:29.761Z,95.00
2022-12-13T01:03:58.843Z,99.65
2022-12-13T01:06:35.964Z,89.82
2022-12-13T01:09:04.577Z,97.68
2022-12-13T01:11:31.438Z,76.63
2022-12-13T01:13:58.078Z,69.32
2022-12-13T01:16:24.796Z,62.90
2022-12-13T01:18:51.542Z,67.55
2022-12-13T01:21:20.858Z,68.50
2022-12-13T01:23:49.212Z,81.28
2022-12-13T01:26:18.603Z,76.82
2022-12-13T01:28:45.322Z,82.50
2022-12-13T01:31:15.695Z,86.72
2022-12-13T01:33:43.292Z,81.63
2022-12-13T01:36:14.133Z,63.53
2022-12-13T01:38:40.957Z,57.40
2022-12-13T01:41:16.927Z,52.25
2022-12-13T01:43:44.616Z,47.60
2022-12-13T01:46:12.234Z,50.40
2022-12-13T01:48:47.587Z,42.15
2022-12-13T01:51:17.503Z,41.05
2022-12-13T01:53:47.056Z,35.20
2022-12-13T01:56:21.380Z,37.17
2022-12-13T01:58:50.462Z,40.50
2022-12-13T02:01:18.268Z,42.67
2022-12-13T02:03:45.881Z,45.10
2022-12-13T02:06:17.298Z,34.63
2022-12-13T02:08:45.749Z,32.47
2022-12-13T02:11:14.025Z,46.00
2022-12-13T02:13:40.741Z,35.22
2022-12-13T02:16:10.468Z,32.83
2022-12-13T02:19:12.810Z,38.80
2022-12-13T02:22:00.425Z,27.92
2022-12-13T02:24:35.847Z,28.77
2022-12-13T02:27:42.605Z,25.30
2022-12-13T02:30:19.603Z,31.30
2022-12-13T02:33:21.262Z,28.63
2022-12-13T02:35:55.317Z,28.08
2022-12-13T02:38:26.248Z,25.15
2022-12-13T02:41:17.044Z,27.38
2022-12-13T02:44:01.766Z,23.02
2022-12-13T02:46:33.207Z,29.40
2022-12-13T02:49:00.780Z,29.70
2022-12-13T02:51:28.780Z,34.65
2022-12-13T02:53:55.508Z,37.70
2022-12-13T02:56:22.156Z,31.33
2022-12-13T02:58:53.325Z,39.15
2022-12-13T03:01:39.962Z,36.58
2022-12-13T03:04:30.409Z,31.92
2022-12-13T03:07:23.830Z,28.13
2022-12-13T03:10:06.631Z,27.85
2022-12-13T03:15:53.420Z,32.65
2022-12-13T03:18:22.376Z,36.47
2022-12-13T03:21:02.506Z,37.40
2022-12-13T03:23:29.607Z,43.28
2022-12-13T03:26:03.193Z,39.83
2022-12-13T03:28:29.848Z,48.88
2022-12-13T03:30:56.547Z,42.85
2022-12-13T03:33:23.870Z,52.00
2022-12-13T03:35:51.086Z,50.60
2022-12-13T03:38:22.153Z,50.72
2022-12-13T03:40:55.937Z,47.10
2022-12-13T03:43:23.356Z,36.60
2022-12-13T03:45:51.701Z,48.78
2022-12-13T03:48:22.745Z,51.92
2022-12-13T03:50:50.438Z,48.30
2022-12-13T03:53:22.051Z,46.03
2022-12-13T03:55:50.508Z,44.03
2022-12-13T03:58:17.252Z,53.60
2022-12-13T04:00:44.304Z,58.15
2022-12-13T04:03:11.208Z,50.28
2022-12-13T04:05:37.971Z,49.05
2022-12-13T04:08:05.277Z,59.10
2022-12-13T04:10:48.847Z,47.45
2022-12-13T04:13:33.777Z,52.45
2022-12-13T04:16:02.178Z,52.15
2022-12-13T04:18:29.192Z,51.30
2022-12-13T04:20:57.474Z,50.22
2022-12-13T04:23:25.392Z,53.80
2022-12-13T04:25:52.002Z,44.80
2022-12-13T04:28:22.713Z,47.15
2022-12-13T04:30:53.159Z,41.22
2022-12-13T04:33:22.434Z,47.25
2022-12-13T04:35:49.641Z,38.53
2022-12-13T04:38:16.350Z,42.97
2022-12-13T04:40:43.064Z,45.63
2022-12-13T04:43:09.926Z,45.08
2022-12-13T04:45:36.595Z,45.42
2022-12-13T04:48:03.496Z,50.03
2022-12-13T04:50:30.179Z,40.45
2022-12-13T04:52:56.784Z,42.25
2022-12-13T04:55:23.419Z,40.00
2022-12-13T04:57:50.004Z,41.25
2022-12-13T05:00:17.252Z,43.60
2022-12-13T05:02:44.064Z,41.92
2022-12-13T05:05:11.469Z,37.42
2022-12-13T05:07:41.881Z,41.60
2022-12-13T05:10:09.622Z,42.22
2022-12-13T05:12:36.253Z,41.05
2022-12-13T05:15:03.063Z,36.03
2022-12-13T05:17:29.720Z,34.22
2022-12-13T05:19:56.395Z,36.53
2022-12-13T05:22:23.071Z,32.38
2022-12-13T05:24:49.928Z,34.38
2022-12-13T05:27:23.797Z,35.35
2022-12-13T05:29:59.309Z,32.47
2022-12-13T05:32:43.250Z,32.67
2022-12-13T05:35:13.786Z,27.95
2022-12-13T05:37:41.114Z,26.55
2022-12-13T05:40:08.808Z,35.38
2022-12-13T05:42:38.050Z,33.72
2022-12-13T05:45:07.342Z,25.10
2022-12-13T05:47:34.020Z,38.35
2022-12-13T05:50:00.743Z,39.22
2022-12-13T05:52:30.610Z,33.17
2022-12-13T05:55:01.145Z,30.13
2022-12-13T05:57:28.337Z,30.33
2022-12-13T05:59:55.283Z,31.52
2022-12-13T06:02:22.340Z,36.08
2022-12-13T06:04:49.190Z,24.77
2022-12-13T06:07:15.915Z,24.67
2022-12-13T06:09:43.216Z,28.52
2022-12-13T06:12:30.865Z,28.80
2022-12-13T06:15:01.372Z,31.27
2022-12-13T06:17:37.182Z,28.97
2022-12-13T06:20:24.433Z,23.70
2022-12-13T06:22:52.794Z,27.67
2022-12-13T06:25:31.064Z,24.40
2022-12-13T06:28:01.336Z,26.10
2022-12-13T06:30:29.577Z,23.33
2022-12-13T06:32:56.810Z,24.60
2022-12-13T06:35:28.582Z,21.75
2022-12-13T06:38:01.085Z,23.23
2022-12-13T06:40:29.143Z,22.05
2022-12-13T06:42:55.928Z,25.15
2022-12-13T06:45:22.730Z,26.52
2022-12-13T06:47:49.371Z,24.30
2022-12-13T06:50:17.275Z,27.23
2022-12-13T06:52:46.594Z,24.67
2022-12-13T06:55:13.712Z,24.23
2022-12-13T06:57:40.950Z,28.88
2022-12-13T07:00:09.334Z,22.40
2022-12-13T07:02:36.300Z,24.08
2022-12-13T07:05:03.173Z,21.38
2022-12-13T07:07:29.982Z,21.08
2022-12-13T07:09:56.845Z,15.70
2022-12-13T07:12:23.822Z,17.65
2022-12-13T07:14:50.689Z,17.25
2022-12-13T07:17:32.495Z,18.77
2022-12-13T07:20:03.589Z,18.70
2022-12-13T07:22:34.959Z,12.00
2022-12-13T07:25:05.184Z,12.15
2022-12-13T07:27:32.429Z,13.05
2022-12-13T07:29:59.328Z,10.93
2022-12-13T07:32:26.127Z,12.65
2022-12-13T07:34:53.059Z,12.27
2022-12-13T07:37:30.447Z,9.70
2022-12-13T07:40:03.383Z,10.38
2022-12-13T07:42:31.050Z,6.35
2022-12-13T07:44:57.786Z,10.15
2022-12-13T07:47:29.448Z,5.55
2022-12-13T07:49:56.342Z,8.38
2022-12-13T07:52:23.223Z,8.07
2022-12-13T07:54:50.453Z,7.20
2022-12-13T07:57:17.108Z,13.25
2022-12-13T07:59:43.761Z,7.20
2022-12-13T08:02:13.393Z,11.27
2022-12-13T08:04:41.955Z,6.82
2022-12-13T08:07:09.302Z,8.63
2022-12-13T08:09:36.248Z,11.05
2022-12-13T08:12:03.750Z,8.82
2022-12-13T08:14:30.404Z,12.98
2022-12-13T08:16:57.488Z,9.63
2022-12-13T08:19:24.390Z,14.27
2022-12-13T08:21:56.627Z,11.35
2022-12-13T08:24:26.651Z,10.60
2022-12-13T08:26:53.305Z,12.40
2022-12-13T08:29:23.461Z,12.23
2022-12-13T08:32:10.611Z,12.03
2022-12-13T08:34:37.810Z,12.07
2022-12-13T08:37:04.998Z,14.55
2022-12-13T08:39:35.659Z,12.98
2022-12-13T08:42:14.996Z,15.10
2022-12-13T08:44:48.397Z,10.45
2022-12-13T08:47:23.771Z,11.05
2022-12-13T08:49:53.727Z,8.57
2022-12-13T08:52:22.843Z,8.05
2022-12-13T08:54:49.792Z,9.60
2022-12-13T08:57:16.547Z,9.43
2022-12-13T08:59:43.197Z,12.32
2022-12-13T09:02:13.420Z,9.50
2022-12-13T09:04:40.143Z,14.13
2022-12-13T09:07:06.782Z,12.77
2022-12-13T09:09:33.546Z,10.35
2022-12-13T09:12:00.292Z,9.80
2022-12-13T09:14:33.926Z,11.27
2022-12-13T09:17:03.336Z,12.18
2022-12-13T09:19:36.672Z,10.68
2022-12-13T09:22:05.068Z,10.00
2022-12-13T09:24:35.751Z,8.98
2022-12-13T09:27:02.749Z,9.65
2022-12-13T09:29:36.955Z,10.63
2022-12-13T09:32:03.897Z,10.57
2022-12-13T09:34:30.645Z,7.82
2022-12-13T09:37:01.505Z,10.98
2022-12-13T09:39:29.372Z,10.82
2022-12-13T09:42:01.027Z,12.63
2022-12-13T09:44:46.625Z,10.25
2022-12-13T09:47:27.088Z,10.82
2022-12-13T09:50:08.298Z,14.80
2022-12-13T09:52:43.121Z,11.73
2022-12-13T09:55:23.181Z,8.85
2022-12-13T09:57:51.517Z,18.02
2022-12-13T10:00:23.895Z,13.30
2022-12-13T10:03:00.546Z,10.00
2022-12-13T10:05:39.154Z,11.77
2022-12-13T10:08:13.177Z,9.88
2022-12-13T10:10:40.076Z,8.20
2022-12-13T10:13:32.895Z,13.32
2022-12-13T10:18:39.048Z,12.82
2022-12-13T10:21:11.924Z,13.27
2022-12-13T10:24:15.294Z,12.50
2022-12-13T10:26:25.455Z,14.27
2022-12-13T10:29:03.047Z,9.30
2022-12-13T10:31:29.848Z,12.60
2022-12-13T10:33:57.472Z,7.85
2022-12-13T10:36:33.858Z,13.20
2022-12-13T10:39:02.729Z,10.77
2022-12-13T10:41:31.268Z,6.47
2022-12-13T10:44:30.578Z,7.57
2022-12-13T10:47:17.273Z,10.45
2022-12-13T10:49:59.007Z,9.35
2022-12-13T10:52:43.561Z,6.55
2022-12-13T10:55:36.130Z,7.70
2022-12-13T10:58:09.761Z,8.10
2022-12-13T11:00:45.385Z,4.60
2022-12-13T11:03:33.513Z,6.20
2022-12-13T11:06:18.484Z,5.53
2022-12-13T11:08:45.107Z,6.25
2022-12-13T11:11:12.479Z,7.18
2022-12-13T11:13:46.342Z,6.47
2022-12-13T11:16:21.943Z,6.95
2022-12-13T11:18:54.236Z,8.02
2022-12-13T11:21:26.639Z,6.72
2022-12-13T11:26:24.488Z,4.68
2022-12-13T11:28:58.255Z,5.75
2022-12-13T11:31:43.823Z,7.68
2022-12-13T11:34:16.426Z,7.63
2022-12-13T11:39:37.115Z,4.97
2022-12-13T11:42:18.663Z,3.72
2022-12-13T11:45:04.086Z,9.15
2022-12-13T11:47:46.532Z,5.22
2022-12-13T11:50:33.592Z,6.80
2022-12-13T11:53:29.792Z,5.03
2022-12-13T11:55:59.906Z,5.05
2022-12-13T11:59:02.653Z,5.55
2022-12-13T12:01:44.063Z,6.13
2022-12-13T12:04:20.067Z,12.07
2022-12-13T12:06:55.713Z,6.07
2022-12-13T12:09:25.310Z,5.57
2022-12-13T12:12:03.037Z,6.80
2022-12-13T12:14:32.313Z,5.57
2022-12-13T12:16:59.622Z,10.30
2022-12-13T12:19:41.985Z,7.97
2022-12-13T12:22:15.355Z,7.05
2022-12-13T12:24:48.609Z,7.90
2022-12-13T12:27:34.113Z,8.20
2022-12-13T12:30:23.329Z,8.02
2022-12-13T12:32:54.952Z,6.97
2022-12-13T12:35:38.152Z,15.77
2022-12-13T12:38:27.627Z,9.55
2022-12-13T12:41:20.884Z,6.90
2022-12-13T12:46:26.935Z,8.20
2022-12-13T12:49:24.720Z,7.57
2022-12-13T12:52:15.948Z,8.20
2022-12-13T12:55:03.244Z,9.38
2022-12-13T12:57:47.806Z,7.95
2022-12-13T13:00:20.370Z,8.07
2022-12-13T13:03:22.674Z,9.40
2022-12-13T13:06:02.107Z,15.40
2022-12-13T13:08:50.202Z,8.73
2022-12-13T13:11:24.525Z,7.63
2022-12-13T13:14:01.760Z,8.73
2022-12-13T13:16:40.363Z,11.93
2022-12-13T13:19:12.781Z,6.78
2022-12-13T13:24:18.975Z,8.57
2022-12-13T13:26:51.281Z,9.27
2022-12-13T13:32:12.305Z,25.92
2022-12-13T13:34:50.012Z,20.25
2022-12-13T13:42:29.117Z,6.72
2022-12-13T13:45:03.565Z,7.93
2022-12-13T13:47:39.181Z,5.82
2022-12-13T13:50:08.806Z,6.55
2022-12-13T13:52:44.775Z,6.20
2022-12-13T13:55:32.812Z,7.22
2022-12-13T13:58:11.812Z,12.90
2022-12-13T14:01:32.675Z,7.53
2022-12-13T14:04:38.072Z,8.95
2022-12-13T14:07:35.472Z,8.55
2022-12-13T14:10:22.382Z,5.80
2022-12-13T14:12:55.359Z,5.65
2022-12-13T14:15:27.653Z,6.65
2022-12-13T14:18:07.368Z,10.77
2022-12-13T14:20:56.294Z,18.55
2022-12-13T14:23:37.356Z,8.85
2022-12-13T14:26:17.928Z,10.27
2022-12-13T14:28:50.760Z,4.82
2022-12-13T14:31:41.952Z,4.38
2022-12-13T14:34:26.516Z,5.82
2022-12-13T14:37:01.025Z,5.85
2022-12-13T14:39:34.143Z,6.80
2022-12-13T14:42:17.830Z,9.25
2022-12-13T14:44:44.561Z,9.52
2022-12-13T14:47:12.076Z,11.35
2022-12-13T14:49:42.003Z,15.73
2022-12-13T14:52:29.216Z,17.08
2022-12-13T14:54:59.387Z,8.55
2022-12-13T14:57:29.004Z,7.53
2022-12-13T14:59:57.471Z,9.27
2022-12-13T15:02:30.766Z,6.43
2022-12-13T15:05:01.345Z,6.32
2022-12-13T15:07:35.872Z,10.98
2022-12-13T15:10:19.168Z,7.75
2022-12-13T15:12:46.982Z,5.65
2022-12-13T15:15:31.439Z,4.75
2022-12-13T15:18:10.113Z,5.47
2022-12-13T15:20:41.452Z,6.05
2022-12-13T15:23:29.972Z,9.27
2022-12-13T15:26:27.658Z,5.07
2022-12-13T15:29:09.406Z,12.05
2022-12-13T15:31:38.100Z,12.32
2022-12-13T15:34:30.841Z,8.35
2022-12-13T15:37:00.988Z,9.63
2022-12-13T15:39:28.721Z,17.60
2022-12-13T15:41:56.101Z,8.80
2022-12-13T15:44:30.389Z,18.33
2022-12-13T15:47:28.268Z,13.57
2022-12-13T15:50:04.934Z,21.70
2022-12-13T15:52:33.275Z,10.38
2022-12-13T15:55:06.788Z,16.73
2022-12-13T15:57:36.139Z,13.18
2022-12-13T16:00:17.666Z,14.23
2022-12-13T16:03:01.410Z,13.90
2022-12-13T16:05:38.527Z,9.25
2022-12-13T16:08:14.198Z,8.07
2022-12-13T16:10:47.990Z,9.77
2022-12-13T16:13:26.435Z,8.05
2022-12-13T16:16:00.362Z,5.63
2022-12-13T16:18:51.592Z,11.32
2022-12-13T16:21:18.395Z,8.60
2022-12-13T16:23:48.332Z,12.25
2022-12-13T16:26:21.871Z,15.65
2022-12-13T16:28:48.602Z,12.25
2022-12-13T16:31:26.360Z,7.78
2022-12-13T16:33:53.224Z,10.30
2022-12-13T16:36:20.044Z,8.65
2022-12-13T16:38:46.736Z,9.63
2022-12-13T16:41:14.816Z,10.60
2022-12-13T16:44:02.537Z,11.32
2022-12-13T16:47:15.083Z,7.05
2022-12-13T16:49:22.413Z,8.00
2022-12-13T16:51:49.573Z,11.35
2022-12-13T16:54:18.210Z,11.07
2022-12-13T16:56:45.100Z,13.00
2022-12-13T16:59:16.910Z,7.30
2022-12-13T17:01:45.353Z,9.80
2022-12-13T17:04:20.069Z,13.95
2022-12-13T17:06:47.809Z,18.02
2022-12-13T17:09:14.595Z,17.73
2022-12-13T17:11:41.561Z,14.20
2022-12-13T17:14:08.764Z,11.00
2022-12-13T17:16:35.496Z,12.90
2022-12-13T17:19:02.516Z,10.68
2022-12-13T17:21:29.879Z,11.57
2022-12-13T17:24:01.460Z,11.10
2022-12-13T17:26:29.301Z,14.82
2022-12-13T17:28:56.156Z,9.40
2022-12-13T17:31:23.006Z,11.05
2022-12-13T17:33:49.772Z,18.73
2022-12-13T17:36:17.226Z,13.98
2022-12-13T17:38:45.848Z,12.35
2022-12-13T17:41:13.744Z,14.52
2022-12-13T17:43:41.081Z,13.35
2022-12-13T17:46:12.302Z,10.02
2022-12-13T17:48:41.002Z,11.02
2022-12-13T17:51:10.254Z,21.85
2022-12-13T17:53:39.587Z,19.10
2022-12-13T17:56:12.237Z,17.05
2022-12-13T17:58:39.322Z,16.63
2022-12-13T18:01:16.235Z,16.10
2022-12-13T18:03:43.274Z,8.80
2022-12-13T18:06:10.646Z,12.23
2022-12-13T18:08:39.611Z,10.32
2022-12-13T18:13:55.535Z,11.15
2022-12-13T18:16:28.912Z,15.88
2022-12-13T18:19:01.110Z,19.20
2022-12-13T18:21:27.766Z,19.48
2022-12-13T18:23:56.123Z,20.83
2022-12-13T18:26:24.606Z,23.13
2022-12-13T18:28:52.080Z,23.02
2022-12-13T18:31:22.200Z,22.55
2022-12-13T18:33:50.761Z,26.23
2022-12-13T18:36:18.268Z,29.65
2022-12-13T18:38:45.763Z,25.05
2022-12-13T18:41:16.508Z,22.35
2022-12-13T18:43:44.368Z,19.05
2022-12-13T18:46:12.636Z,19.67
2022-12-13T18:48:39.614Z,19.00
2022-12-13T18:51:10.130Z,22.05
2022-12-13T18:53:38.954Z,26.42
2022-12-13T18:56:17.837Z,20.08
2022-12-13T18:58:50.568Z,24.23
2022-12-13T19:01:18.745Z,24.27
2022-12-13T19:03:48.040Z,22.83
2022-12-13T19:06:21.126Z,22.25
2022-12-13T19:08:49.367Z,20.77
2022-12-13T19:11:16.252Z,24.65
2022-12-13T19:13:43.313Z,23.83
2022-12-13T19:16:12.646Z,23.85
2022-12-13T19:18:39.335Z,24.60
2022-12-13T19:21:08.512Z,21.58
2022-12-13T19:23:35.610Z,23.33
2022-12-13T19:26:08.411Z,20.80
2022-12-13T19:28:35.152Z,27.88
2022-12-13T19:31:05.741Z,23.25
2022-12-13T19:33:33.048Z,25.55
2022-12-13T19:36:00.110Z,21.05
2022-12-13T19:38:26.952Z,24.60
2022-12-13T19:40:53.574Z,21.70
2022-12-13T19:43:22.970Z,18.92
2022-12-13T19:45:52.324Z,21.73
2022-12-13T19:48:19.012Z,18.55
2022-12-13T19:50:45.765Z,20.17
2022-12-13T19:53:12.433Z,24.23
2022-12-13T19:55:45.636Z,21.38
2022-12-13T19:58:15.142Z,21.00
2022-12-13T20:00:41.802Z,19.38
2022-12-13T20:03:08.613Z,23.70
2022-12-13T20:05:36.143Z,24.95
2022-12-13T20:08:02.994Z,21.58
2022-12-13T20:10:29.667Z,21.17
2022-12-13T20:12:56.578Z,22.58
2022-12-13T20:15:23.431Z,20.08
2022-12-13T20:17:51.727Z,17.30
2022-12-13T20:20:19.854Z,19.65
2022-12-13T20:22:48.552Z,20.92
2022-12-13T20:25:15.354Z,17.88
2022-12-13T20:27:44.172Z,21.67
2022-12-13T20:30:11.416Z,19.98
2022-12-13T20:32:38.101Z,20.85
2022-12-13T20:35:05.251Z,19.35
2022-12-13T20:37:31.850Z,18.05
2022-12-13T20:39:59.638Z,16.38
2022-12-13T20:42:26.375Z,13.90
2022-12-13T20:44:53.085Z,9.43
2022-12-13T20:47:19.851Z,7.13
2022-12-13T20:49:48.390Z,9.20
2022-12-13T20:52:17.074Z,8.00
2022-12-13T20:54:43.725Z,5.32
2022-12-13T20:57:10.327Z,10.45
2022-12-13T20:59:37.717Z,8.65
2022-12-13T21:02:04.555Z,8.80
2022-12-13T21:04:31.317Z,9.85
2022-12-13T21:06:58.352Z,12.88
2022-12-13T21:09:24.927Z,11.77
2022-12-13T21:11:51.507Z,11.52
2022-12-13T21:14:23.133Z,9.88
2022-12-13T21:16:58.862Z,8.95
2022-12-13T21:19:39.440Z,7.22
2022-12-13T21:22:06.868Z,9.88
2022-12-13T21:24:33.531Z,14.57
2022-12-13T21:27:00.463Z,8.68
2022-12-13T21:29:27.051Z,8.43
2022-12-13T21:31:54.778Z,9.85
2022-12-13T21:34:22.431Z,9.27
2022-12-13T21:36:52.285Z,8.40
2022-12-13T21:39:28.179Z,10.68
2022-12-13T21:41:55.214Z,13.20
2022-12-13T21:44:22.932Z,7.90
2022-12-13T21:49:36.514Z,11.35
2022-12-13T21:52:03.391Z,7.55
2022-12-13T21:54:30.340Z,8.65
2022-12-13T21:57:15.350Z,9.85
2022-12-13T21:59:41.987Z,8.88
2022-12-13T22:02:16.369Z,11.48
2022-12-13T22:04:50.678Z,7.88
2022-12-13T22:07:24.706Z,8.85
2022-12-13T22:09:53.257Z,8.75
2022-12-13T22:12:32.064Z,7.60
2022-12-13T22:14:58.831Z,9.43
2022-12-13T22:17:34.296Z,12.65
2022-12-13T22:20:03.335Z,8.15
2022-12-13T22:22:30.982Z,8.23
2022-12-13T22:24:58.045Z,7.22
2022-12-13T22:27:25.727Z,12.48
2022-12-13T22:29:57.113Z,6.90
2022-12-13T22:32:28.890Z,7.70
2022-12-13T22:34:55.910Z,11.80
2022-12-13T22:37:23.201Z,8.93
2022-12-13T22:39:49.970Z,8.35
2022-12-13T22:42:16.663Z,8.25
2022-12-13T22:44:43.476Z,9.15
2022-12-13T22:47:10.132Z,10.82
2022-12-13T22:49:36.760Z,8.38
2022-12-13T22:52:03.512Z,7.82
2022-12-13T22:54:30.321Z,9.57
2022-12-13T22:56:56.986Z,9.15
2022-12-13T22:59:23.688Z,5.75
2022-12-13T23:01:50.602Z,8.27
2022-12-13T23:04:18.263Z,9.40
2022-12-13T23:06:45.402Z,10.85
2022-12-13T23:09:13.837Z,8.27
2022-12-13T23:11:59.041Z,9.57
2022-12-13T23:14:28.376Z,10.88
2022-12-13T23:16:55.295Z,8.98
2022-12-13T23:22:09.083Z,9.15
2022-12-13T23:24:35.809Z,10.82
2022-12-13T23:27:02.585Z,9.98
2022-12-13T23:29:29.312Z,7.55
2022-12-13T23:31:55.954Z,9.48
2022-12-13T23:34:22.632Z,7.72
2022-12-13T23:36:50.358Z,8.73
2022-12-13T23:39:16.989Z,10.70
2022-12-13T23:41:43.740Z,7.85
2022-12-13T23:44:10.478Z,8.43
2022-12-13T23:46:37.170Z,6.03
2022-12-13T23:49:05.737Z,9.20
2022-12-13T23:51:33.908Z,10.52
2022-12-13T23:54:00.599Z,5.85
2022-12-13T23:56:27.350Z,8.40
2022-12-13T23:58:54.361Z,6.82
